Terminal Aerodrome Forecast
Issued by NWS

Home | Current Version | Previous Version | Text Only | Print | Product List | Glossary On
Versions: 1 2 3 4 5 6 7 8 9 10 11 12 13 14 15 16 17 18 19 20 21 22 23 24 25 26 27 28 29 30
000
FTUS45 KGJT 201138
TAFCNY
TAF
KCNY 201138Z 2012/2112 19012KT P6SM SKC
     FM201500 19011KT P6SM SCT060 BKN110
     FM201800 22007KT P6SM FEW060 SCT110
     FM202000 28010KT P6SM BKN070 BKN110
     FM210200 26006KT P6SM VCSH SCT060 BKN100
     FM210600 31010KT P6SM -RA BKN060=

USA.gov is the U.S. government's official web portal to all federal, state and local government web resources and services.